Cleveland, OH (44136)

8:01 PM EDT on September 04, 2015 (GMT -0400)
Albion Place | | Change Station
CLOSE
Current Station
Personal Weather Station
Location: Strongsville, OH
Elevation: 850 ft
Nearby Weather Stations

Elev 850 ft 41.33 °N, 81.84 °W | Updated 1 minute ago

Mostly Cloudy
Mostly Cloudy
74.9 °F
Feels Like 75 °F
N
0.0
Wind Variable Wind from South
Gusts 0.0 mph

Today
High -- | Low -- °F
--% Chance of Precip.
Yesterday
High -- | Low -- °F
Precip. -- in
6:56 AM 7:55 PM
Waning Gibbous, 54% visible
Pressure 30.06 in
Visibility 10.0 miles
Clouds Scattered Clouds 25000 ft
Heat Index 75 °F
Dew Point 68 °F
Humidity 80%
Rainfall 1.21 in
Snow Depth Not available.
UV 0 out of 12
Pollen 8.70 out of 12
Air Quality Not available.
Flu Activity Not available.
METAR KCLE 042351Z 22006KT 10SM SCT250 24/19 A3007 RMK AO2 SLP178 T02390194 10289 20239 50004
Pressure 30.06 in
Visibility 10.0 miles
Clouds Scattered Clouds 25000 ft
Heat Index 75 °F
Dew Point 68 °F
Humidity 80%
Rainfall 1.21 in
Snow Depth Not available.
UV 0 out of 12
Pollen 8.70 out of 12
Air Quality Not available.
Flu Activity Not available.
METAR KCLE 042351Z 22006KT 10SM SCT250 24/19 A3007 RMK AO2 SLP178 T02390194 10289 20239 50004

10-Day Weather Forecast

×

Almanac

Astronomy

Sep. 04, 2015 Rise Set
Actual Time
Civil Twilight
Nautical Twilight
Astronomical Twilight
Moon
Length of Visible Light
Length of Day
Tomorrow will be .
, % of the Moon is Illuminated

Today's Extremes

State Highs State Lows

Community

WunderPhotos

Upload Photos

1,852,345 photos uploaded!

WunderBlogs® & News

Nearby

Air Quality

  Air Quality AQ Index Pollutant
Not available.

Snow Depth

Station Depth Elevation

Earthquake Activity

City Distance Mag. Time & Date
Minimum magnitude displayed is 2.5.

Coastal Water Temperatures

Place Temperature

Stations

Nearby Weather Stations

Station Location Temp. Windchill Dew Point Humidity Wind Precip. Elev Updated Type